createdAt,value
2023-04-20T00:00:24.610Z,520.00
2023-04-20T00:01:24.590Z,520.00
2023-04-20T00:02:24.732Z,522.00
2023-04-20T00:03:24.899Z,521.00
2023-04-20T00:04:24.661Z,521.00
2023-04-20T00:05:24.698Z,524.00
2023-04-20T00:06:24.646Z,521.00
2023-04-20T00:07:24.680Z,522.00
2023-04-20T00:08:24.663Z,521.00
2023-04-20T00:09:24.645Z,521.00
2023-04-20T00:10:24.693Z,520.00
2023-04-20T00:11:24.662Z,523.00
2023-04-20T00:12:24.670Z,520.00
2023-04-20T00:13:24.680Z,521.00
2023-04-20T00:14:24.673Z,519.00
2023-04-20T00:15:24.684Z,518.00
2023-04-20T00:16:24.725Z,520.00
2023-04-20T00:17:24.719Z,520.00
2023-04-20T00:18:24.739Z,522.00
2023-04-20T00:19:24.706Z,524.00
2023-04-20T00:20:24.719Z,516.00
2023-04-20T00:21:24.734Z,523.00
2023-04-20T00:22:24.713Z,524.00
2023-04-20T00:23:24.726Z,522.00
2023-04-20T00:24:24.751Z,517.00
2023-04-20T00:25:24.719Z,521.00
2023-04-20T00:26:24.719Z,519.00
2023-04-20T00:27:24.739Z,521.00
2023-04-20T00:28:24.765Z,519.00
2023-04-20T00:29:24.740Z,520.00
2023-04-20T00:30:24.768Z,518.00
2023-04-20T00:31:24.834Z,522.00
2023-04-20T00:32:24.768Z,514.00
2023-04-20T00:33:24.785Z,514.00
2023-04-20T00:34:24.831Z,525.00
2023-04-20T00:35:24.814Z,520.00
2023-04-20T00:36:24.812Z,515.00
2023-04-20T00:37:24.840Z,518.00
2023-04-20T00:38:24.857Z,514.00
2023-04-20T00:39:24.811Z,513.00
2023-04-20T00:40:24.800Z,512.00
2023-04-20T00:41:24.816Z,513.00
2023-04-20T00:42:24.828Z,517.00
2023-04-20T00:43:24.829Z,515.00
2023-04-20T00:44:24.819Z,514.00
2023-04-20T00:45:24.818Z,515.00
2023-04-20T00:46:24.901Z,518.00
2023-04-20T00:47:24.877Z,515.00
2023-04-20T00:48:24.892Z,514.00
2023-04-20T00:49:24.857Z,513.00
2023-04-20T00:50:24.857Z,514.00
2023-04-20T00:51:24.884Z,514.00
2023-04-20T00:52:24.855Z,515.00
2023-04-20T00:53:24.947Z,513.00
2023-04-20T00:54:24.900Z,511.00
2023-04-20T00:55:24.896Z,516.00
2023-04-20T00:56:24.910Z,518.00
2023-04-20T00:57:24.917Z,509.00
2023-04-20T00:58:24.929Z,508.00
2023-04-20T00:59:24.976Z,510.00
2023-04-20T01:00:24.927Z,511.00
2023-04-20T01:01:24.945Z,511.00
2023-04-20T01:02:25.020Z,512.00
2023-04-20T01:03:25.113Z,512.00
2023-04-20T01:04:25.067Z,512.00
2023-04-20T01:05:24.972Z,510.00
2023-04-20T01:06:24.967Z,508.00
2023-04-20T01:07:24.983Z,511.00
2023-04-20T01:08:24.994Z,513.00
2023-04-20T01:09:25.006Z,510.00
2023-04-20T01:10:25.049Z,512.00
2023-04-20T01:11:25.065Z,510.00
2023-04-20T01:12:25.027Z,510.00
2023-04-20T01:13:25.049Z,504.00
2023-04-20T01:14:25.070Z,512.00
2023-04-20T01:15:25.234Z,504.00
2023-04-20T01:16:25.133Z,512.00
2023-04-20T01:17:25.129Z,510.00
2023-04-20T01:18:25.090Z,507.00
2023-04-20T01:19:25.105Z,508.00
2023-04-20T01:20:25.110Z,507.00
2023-04-20T01:21:25.125Z,507.00
2023-04-20T01:22:25.151Z,509.00
2023-04-20T01:23:25.177Z,506.00
2023-04-20T01:24:25.151Z,506.00
2023-04-20T01:25:25.173Z,507.00
2023-04-20T01:26:25.170Z,507.00
2023-04-20T01:27:25.167Z,509.00
2023-04-20T01:28:25.279Z,510.00
2023-04-20T01:29:25.193Z,510.00
2023-04-20T01:30:25.223Z,509.00
2023-04-20T01:31:25.245Z,506.00
2023-04-20T01:32:25.235Z,506.00
2023-04-20T01:33:25.265Z,509.00
2023-04-20T01:34:25.232Z,505.00
2023-04-20T01:35:25.248Z,508.00
2023-04-20T01:36:25.252Z,506.00
2023-04-20T01:37:25.282Z,504.00
2023-04-20T01:38:25.289Z,509.00
2023-04-20T01:39:25.307Z,504.00
2023-04-20T01:40:25.347Z,504.00
2023-04-20T01:41:25.337Z,512.00
2023-04-20T01:42:25.397Z,503.00
2023-04-20T01:43:25.389Z,502.00
2023-04-20T01:44:25.367Z,506.00
2023-04-20T01:45:25.367Z,503.00
2023-04-20T01:46:25.405Z,507.00
2023-04-20T01:47:25.426Z,506.00
2023-04-20T01:48:25.462Z,509.00
2023-04-20T01:49:25.414Z,506.00
2023-04-20T01:50:25.418Z,505.00
2023-04-20T01:51:25.452Z,506.00
2023-04-20T01:52:25.454Z,505.00
2023-04-20T01:53:25.494Z,509.00
2023-04-20T01:54:25.466Z,505.00
2023-04-20T01:55:25.519Z,502.00
2023-04-20T01:56:25.486Z,507.00
2023-04-20T01:57:25.492Z,507.00
2023-04-20T01:58:25.519Z,501.00
2023-04-20T01:59:25.519Z,507.00
2023-04-20T02:00:25.574Z,504.00
2023-04-20T02:01:25.588Z,504.00
2023-04-20T02:02:25.791Z,505.00
2023-04-20T02:03:25.746Z,506.00
2023-04-20T02:04:25.578Z,504.00
2023-04-20T02:05:25.618Z,504.00
2023-04-20T02:06:25.627Z,506.00
2023-04-20T02:07:25.628Z,504.00
2023-04-20T02:08:25.682Z,506.00
2023-04-20T02:09:25.621Z,508.00
2023-04-20T02:10:25.648Z,507.00
2023-04-20T02:11:25.669Z,503.00
2023-04-20T02:12:25.670Z,505.00
2023-04-20T02:13:25.704Z,507.00
2023-04-20T02:14:25.707Z,502.00
2023-04-20T02:15:25.701Z,502.00
2023-04-20T02:16:25.802Z,501.00
2023-04-20T02:17:25.842Z,505.00
2023-04-20T02:18:25.766Z,505.00
2023-04-20T02:19:25.757Z,505.00
2023-04-20T02:20:25.787Z,506.00
2023-04-20T02:21:25.793Z,504.00
2023-04-20T02:22:25.803Z,503.00
2023-04-20T02:23:25.877Z,505.00
2023-04-20T02:24:25.874Z,505.00
2023-04-20T02:25:25.859Z,505.00
2023-04-20T02:26:25.874Z,505.00
2023-04-20T02:27:25.889Z,506.00
2023-04-20T02:28:25.925Z,501.00
2023-04-20T02:29:25.940Z,504.00
2023-04-20T02:30:25.934Z,504.00
2023-04-20T02:31:26.013Z,506.00
2023-04-20T02:32:26.000Z,504.00
2023-04-20T02:33:26.023Z,508.00
2023-04-20T02:34:25.978Z,508.00
2023-04-20T02:35:25.994Z,507.00
2023-04-20T02:36:26.006Z,504.00
2023-04-20T02:37:26.029Z,507.00
2023-04-20T02:38:26.041Z,507.00
2023-04-20T02:39:26.053Z,511.00
2023-04-20T02:40:26.085Z,507.00
2023-04-20T02:41:26.105Z,508.00
2023-04-20T02:42:26.124Z,505.00
2023-04-20T02:43:26.125Z,506.00
2023-04-20T02:44:26.152Z,508.00
2023-04-20T02:45:26.179Z,508.00
2023-04-20T02:46:26.208Z,502.00
2023-04-20T02:47:26.359Z,505.00
2023-04-20T02:48:26.225Z,503.00
2023-04-20T02:49:26.231Z,505.00
2023-04-20T02:50:26.237Z,505.00
2023-04-20T02:51:26.301Z,502.00
2023-04-20T02:52:26.261Z,505.00
2023-04-20T02:53:26.284Z,504.00
2023-04-20T02:54:26.319Z,505.00
2023-04-20T02:55:26.411Z,510.00
2023-04-20T02:56:26.329Z,506.00
2023-04-20T02:57:26.330Z,510.00
2023-04-20T02:58:26.359Z,503.00
2023-04-20T02:59:26.368Z,502.00
2023-04-20T03:00:26.372Z,507.00
2023-04-20T03:01:26.466Z,507.00
2023-04-20T03:02:26.681Z,506.00
2023-04-20T03:03:26.542Z,507.00
2023-04-20T03:04:26.577Z,508.00
2023-04-20T03:05:26.455Z,504.00
2023-04-20T03:06:26.459Z,505.00
2023-04-20T03:07:26.503Z,503.00
2023-04-20T03:08:26.510Z,503.00
2023-04-20T03:09:26.498Z,504.00
2023-04-20T03:10:26.537Z,504.00
2023-04-20T03:11:26.567Z,511.00
2023-04-20T03:12:26.631Z,508.00
2023-04-20T03:13:26.615Z,501.00
2023-04-20T03:14:26.638Z,506.00
2023-04-20T03:15:26.622Z,506.00
2023-04-20T03:16:26.707Z,502.00
2023-04-20T03:17:26.690Z,506.00
2023-04-20T03:18:26.684Z,505.00
2023-04-20T03:19:26.677Z,504.00
2023-04-20T03:20:26.701Z,505.00
2023-04-20T03:21:26.709Z,505.00
2023-04-20T03:22:26.740Z,507.00
2023-04-20T03:23:26.767Z,512.00
2023-04-20T03:24:26.755Z,502.00
2023-04-20T03:25:26.785Z,501.00
2023-04-20T03:26:26.815Z,508.00
2023-04-20T03:27:26.816Z,500.00
2023-04-20T03:28:26.850Z,507.00
2023-04-20T03:29:26.857Z,508.00
2023-04-20T03:30:26.873Z,501.00
2023-04-20T03:31:27.014Z,505.00
2023-04-20T03:32:26.952Z,511.00
2023-04-20T03:33:26.950Z,503.00
2023-04-20T03:34:26.941Z,504.00
2023-04-20T03:35:26.967Z,506.00
2023-04-20T03:36:27.049Z,508.00
2023-04-20T03:37:26.978Z,506.00
2023-04-20T03:38:27.015Z,506.00
2023-04-20T03:39:27.095Z,500.00
2023-04-20T03:40:27.023Z,502.00
2023-04-20T03:41:27.081Z,504.00
2023-04-20T03:42:27.077Z,504.00
2023-04-20T03:43:27.116Z,505.00
2023-04-20T03:44:27.141Z,503.00
2023-04-20T03:45:27.184Z,506.00
2023-04-20T03:46:27.231Z,500.00
2023-04-20T03:47:27.208Z,508.00
2023-04-20T03:48:27.219Z,501.00
2023-04-20T03:49:27.268Z,500.00
2023-04-20T03:50:27.270Z,500.00
2023-04-20T03:51:27.279Z,505.00
2023-04-20T03:52:27.294Z,509.00
2023-04-20T03:53:27.318Z,505.00
2023-04-20T03:54:27.325Z,507.00
2023-04-20T03:55:27.393Z,510.00
2023-04-20T03:56:27.390Z,502.00
2023-04-20T03:57:27.412Z,508.00
2023-04-20T03:58:27.441Z,509.00
2023-04-20T03:59:27.480Z,504.00
2023-04-20T04:00:27.469Z,507.00
2023-04-20T04:01:27.518Z,504.00
2023-04-20T04:02:27.585Z,505.00
2023-04-20T04:03:27.820Z,505.00
2023-04-20T04:04:27.630Z,510.00
2023-04-20T04:05:27.678Z,507.00
2023-04-20T04:06:27.628Z,502.00
2023-04-20T04:07:27.654Z,504.00
2023-04-20T04:08:27.719Z,506.00
2023-04-20T04:09:27.726Z,501.00
2023-04-20T04:10:27.746Z,504.00
2023-04-20T04:11:27.737Z,506.00
2023-04-20T04:12:27.781Z,502.00
2023-04-20T04:13:27.822Z,504.00
2023-04-20T04:14:27.901Z,503.00
2023-04-20T04:15:27.855Z,505.00
2023-04-20T04:16:27.900Z,504.00
2023-04-20T04:17:27.931Z,508.00
2023-04-20T04:18:27.971Z,508.00
2023-04-20T04:19:27.985Z,505.00
2023-04-20T04:20:28.041Z,508.00
2023-04-20T04:21:28.045Z,508.00
2023-04-20T04:22:29.976Z,508.00
2023-04-20T04:23:28.189Z,507.00
2023-04-20T04:24:28.345Z,512.00
2023-04-20T04:25:28.223Z,507.00
2023-04-20T04:26:28.217Z,510.00
2023-04-20T04:27:28.254Z,507.00
2023-04-20T04:28:28.281Z,507.00
2023-04-20T04:29:28.293Z,505.00
2023-04-20T04:30:28.319Z,505.00
2023-04-20T04:31:28.420Z,506.00
2023-04-20T04:32:28.424Z,502.00
2023-04-20T04:33:28.431Z,505.00
2023-04-20T04:34:28.845Z,501.00
2023-04-20T04:35:28.576Z,503.00
2023-04-20T04:36:28.532Z,507.00
2023-04-20T04:37:28.547Z,504.00
2023-04-20T04:38:28.610Z,505.00
2023-04-20T04:39:28.610Z,508.00
2023-04-20T04:40:28.663Z,502.00
2023-04-20T04:41:28.696Z,503.00
2023-04-20T04:42:28.718Z,508.00
2023-04-20T04:43:28.806Z,505.00
2023-04-20T04:44:28.809Z,505.00
2023-04-20T04:45:28.851Z,502.00
2023-04-20T04:46:28.914Z,505.00
2023-04-20T04:47:28.868Z,502.00
2023-04-20T04:48:28.965Z,507.00
2023-04-20T04:49:28.904Z,501.00
2023-04-20T04:50:28.946Z,500.00
2023-04-20T04:51:28.985Z,504.00
2023-04-20T04:52:29.018Z,503.00
2023-04-20T04:53:29.082Z,502.00
2023-04-20T04:54:29.074Z,504.00
2023-04-20T04:55:29.112Z,502.00
2023-04-20T04:56:29.111Z,502.00
2023-04-20T04:57:29.178Z,507.00
2023-04-20T04:58:29.189Z,508.00
2023-04-20T04:59:29.233Z,505.00
2023-04-20T05:00:29.264Z,510.00
2023-04-20T05:01:29.274Z,504.00
2023-04-20T05:02:29.428Z,505.00
2023-04-20T05:03:29.437Z,508.00
2023-04-20T05:04:29.474Z,506.00
2023-04-20T05:05:29.398Z,503.00
2023-04-20T05:06:29.435Z,508.00
2023-04-20T05:07:29.466Z,507.00
2023-04-20T05:08:29.532Z,504.00
2023-04-20T05:09:29.526Z,504.00
2023-04-20T05:10:29.533Z,511.00
2023-04-20T05:11:29.589Z,504.00
2023-04-20T05:12:29.609Z,511.00
2023-04-20T05:13:29.616Z,503.00
2023-04-20T05:14:29.665Z,507.00
2023-04-20T05:15:29.679Z,505.00
2023-04-20T05:16:29.761Z,506.00
2023-04-20T05:17:29.864Z,501.00
2023-04-20T05:18:29.865Z,502.00
2023-04-20T05:19:29.836Z,504.00
2023-04-20T05:20:29.865Z,509.00
2023-04-20T05:21:29.887Z,504.00
2023-04-20T05:22:29.967Z,506.00
2023-04-20T05:23:29.958Z,502.00
2023-04-20T05:24:29.995Z,507.00
2023-04-20T05:25:30.012Z,507.00
2023-04-20T05:26:30.119Z,510.00
2023-04-20T05:27:30.216Z,507.00
2023-04-20T05:28:30.103Z,509.00
2023-04-20T05:29:30.121Z,514.00
2023-04-20T05:30:30.193Z,516.00
2023-04-20T05:31:30.239Z,510.00
2023-04-20T05:32:30.295Z,517.00
2023-04-20T05:33:30.382Z,514.00
2023-04-20T05:34:30.239Z,515.00
2023-04-20T05:35:30.285Z,514.00
2023-04-20T05:36:30.303Z,511.00
2023-04-20T05:37:30.267Z,513.00
2023-04-20T05:38:30.318Z,518.00
2023-04-20T05:39:30.316Z,523.00
2023-04-20T05:40:30.393Z,527.00
2023-04-20T05:41:30.476Z,528.00
2023-04-20T05:42:30.483Z,539.00
2023-04-20T05:43:30.496Z,551.00
2023-04-20T05:44:30.536Z,554.00
2023-04-20T05:45:30.642Z,554.00
2023-04-20T05:46:30.675Z,575.00
2023-04-20T05:47:30.698Z,587.00
2023-04-20T05:48:30.875Z,613.00
2023-04-20T05:49:30.697Z,613.00
2023-04-20T05:50:31.390Z,622.00
2023-04-20T05:51:30.737Z,630.00
2023-04-20T05:52:30.774Z,639.00
2023-04-20T05:53:31.375Z,638.00
2023-04-20T05:54:30.807Z,642.00
2023-04-20T05:55:30.767Z,651.00
2023-04-20T05:56:30.753Z,656.00
2023-04-20T05:57:30.763Z,664.00
2023-04-20T05:58:30.831Z,689.00
2023-04-20T05:59:30.781Z,699.00
2023-04-20T06:00:30.821Z,718.00
2023-04-20T06:01:30.774Z,725.00
2023-04-20T06:02:30.831Z,771.00
2023-04-20T06:03:30.979Z,771.00
2023-04-20T06:04:31.031Z,777.00
2023-04-20T06:05:30.842Z,805.00
2023-04-20T06:06:30.802Z,821.00
2023-04-20T06:07:30.833Z,823.00
2023-04-20T06:08:30.866Z,833.00
2023-04-20T06:09:30.934Z,851.00
2023-04-20T06:10:30.937Z,878.00
2023-04-20T06:11:31.050Z,879.00
2023-04-20T06:12:31.119Z,899.00
2023-04-20T06:13:31.107Z,899.00
2023-04-20T06:14:31.174Z,927.00
2023-04-20T06:15:31.291Z,929.00
2023-04-20T06:16:31.378Z,933.00
2023-04-20T06:17:31.394Z,952.00
2023-04-20T06:18:31.457Z,960.00
2023-04-20T06:19:31.435Z,980.00
2023-04-20T06:20:31.608Z,968.00
2023-04-20T06:21:31.571Z,979.00
2023-04-20T06:22:31.631Z,992.00
2023-04-20T06:23:31.709Z,1002.00
2023-04-20T06:24:31.722Z,1014.00
2023-04-20T06:25:31.746Z,1025.00
2023-04-20T06:26:31.794Z,1044.00
2023-04-20T06:27:31.852Z,1051.00
2023-04-20T06:28:31.904Z,1058.00
2023-04-20T06:29:31.955Z,1077.00
2023-04-20T06:30:31.974Z,1088.00
2023-04-20T06:31:32.030Z,1092.00
2023-04-20T06:32:32.084Z,1103.00
2023-04-20T06:33:32.084Z,1108.00
2023-04-20T06:34:32.096Z,1104.00
2023-04-20T06:35:32.235Z,1108.00
2023-04-20T06:36:32.191Z,1135.00
2023-04-20T06:37:32.277Z,1137.00
2023-04-20T06:38:32.284Z,1142.00
2023-04-20T06:39:32.294Z,1139.00
2023-04-20T06:40:32.346Z,1135.00
2023-04-20T06:41:32.379Z,1117.00
2023-04-20T06:42:32.411Z,1091.00
2023-04-20T06:43:32.901Z,1101.00
2023-04-20T06:44:32.905Z,1112.00
2023-04-20T06:45:34.135Z,1120.00
2023-04-20T06:46:32.636Z,1128.00
2023-04-20T06:47:32.610Z,1121.00
2023-04-20T06:48:33.256Z,1139.00
2023-04-20T06:49:32.651Z,1139.00
2023-04-20T06:50:32.700Z,1128.00
2023-04-20T06:51:32.721Z,1141.00
2023-04-20T06:52:32.751Z,1149.00
2023-04-20T06:53:32.976Z,1168.00
2023-04-20T06:54:32.842Z,1165.00
2023-04-20T06:55:32.857Z,1165.00
2023-04-20T06:56:34.305Z,1178.00
2023-04-20T06:57:33.154Z,1182.00
2023-04-20T06:58:33.947Z,1016.00
2023-04-20T06:59:33.236Z,972.00
2023-04-20T07:00:33.290Z,1004.00
2023-04-20T07:01:33.462Z,952.00
2023-04-20T07:02:33.427Z,835.00
2023-04-20T07:03:33.644Z,744.00
2023-04-20T07:04:33.473Z,665.00
2023-04-20T07:05:33.438Z,606.00
2023-04-20T07:06:33.449Z,586.00
2023-04-20T07:07:33.433Z,568.00
2023-04-20T07:08:33.460Z,576.00
2023-04-20T07:09:33.475Z,527.00
2023-04-20T07:10:33.454Z,523.00
2023-04-20T07:11:33.508Z,542.00
2023-04-20T07:12:33.495Z,511.00
2023-04-20T07:13:34.132Z,536.00
2023-04-20T07:14:33.546Z,546.00
2023-04-20T07:15:33.545Z,562.00
2023-04-20T07:16:33.613Z,557.00
2023-04-20T07:17:33.594Z,558.00
2023-04-20T07:18:35.376Z,565.00
2023-04-20T07:19:33.589Z,566.00
2023-04-20T07:20:33.632Z,573.00
2023-04-20T07:21:33.696Z,575.00
2023-04-20T07:22:33.761Z,578.00
2023-04-20T07:23:33.834Z,592.00
2023-04-20T07:24:34.864Z,592.00
2023-04-20T07:25:33.930Z,597.00
2023-04-20T07:26:33.955Z,605.00
2023-04-20T07:27:34.949Z,607.00
2023-04-20T07:28:34.112Z,607.00
2023-04-20T07:29:34.262Z,616.00
2023-04-20T07:30:34.157Z,626.00
2023-04-20T07:31:35.430Z,632.00
2023-04-20T07:32:34.283Z,624.00
2023-04-20T07:33:34.277Z,626.00
2023-04-20T07:34:34.913Z,613.00
2023-04-20T07:35:34.367Z,634.00
2023-04-20T07:36:35.395Z,635.00
2023-04-20T07:37:35.435Z,621.00
2023-04-20T07:38:34.524Z,619.00
2023-04-20T07:39:34.606Z,616.00
2023-04-20T07:40:34.653Z,599.00
2023-04-20T07:41:34.702Z,599.00
2023-04-20T07:42:34.758Z,584.00
2023-04-20T07:43:34.795Z,580.00
2023-04-20T07:44:34.843Z,568.00
2023-04-20T07:45:35.023Z,564.00
2023-04-20T07:46:34.974Z,556.00
2023-04-20T07:47:35.059Z,541.00
2023-04-20T07:48:35.052Z,532.00
2023-04-20T07:49:35.428Z,546.00
2023-04-20T07:50:35.142Z,540.00
2023-04-20T07:51:35.108Z,523.00
2023-04-20T07:52:35.094Z,516.00
2023-04-20T07:53:35.148Z,522.00
2023-04-20T07:54:35.144Z,525.00
2023-04-20T07:55:35.135Z,524.00
2023-04-20T07:56:35.146Z,507.00
2023-04-20T07:57:35.123Z,509.00
2023-04-20T07:58:35.131Z,511.00
2023-04-20T07:59:35.182Z,507.00
2023-04-20T08:00:35.136Z,509.00
2023-04-20T08:01:35.151Z,508.00
2023-04-20T08:02:35.283Z,505.00
2023-04-20T08:03:35.332Z,502.00
2023-04-20T08:04:35.984Z,505.00
2023-04-20T08:05:35.158Z,500.00
2023-04-20T08:06:35.153Z,504.00
2023-04-20T08:07:35.255Z,501.00
2023-04-20T08:08:35.145Z,503.00
2023-04-20T08:09:35.169Z,506.00
2023-04-20T08:10:35.242Z,502.00
2023-04-20T08:11:35.241Z,502.00
2023-04-20T08:12:35.124Z,502.00
2023-04-20T08:13:35.127Z,502.00
2023-04-20T08:14:35.211Z,505.00
2023-04-20T08:15:35.207Z,500.00
2023-04-20T08:16:35.249Z,501.00
2023-04-20T08:17:35.290Z,500.00
2023-04-20T08:18:35.223Z,504.00
2023-04-20T08:19:35.262Z,505.00
2023-04-20T08:20:35.393Z,504.00
2023-04-20T08:21:35.238Z,511.00
2023-04-20T08:22:35.529Z,501.00
2023-04-20T08:23:35.348Z,520.00
2023-04-20T08:24:35.340Z,523.00
2023-04-20T08:25:36.942Z,555.00
2023-04-20T08:26:35.482Z,557.00
2023-04-20T08:27:35.589Z,586.00
2023-04-20T08:28:35.560Z,595.00
2023-04-20T08:29:35.938Z,610.00
2023-04-20T08:30:35.635Z,617.00
2023-04-20T08:31:35.723Z,626.00
2023-04-20T08:32:35.771Z,628.00
2023-04-20T08:33:35.757Z,632.00
2023-04-20T08:34:36.171Z,640.00
2023-04-20T08:35:35.895Z,639.00
2023-04-20T08:36:35.962Z,645.00
2023-04-20T08:37:35.935Z,644.00
2023-04-20T08:38:35.993Z,649.00
2023-04-20T08:39:36.012Z,655.00
2023-04-20T08:40:36.086Z,656.00
2023-04-20T08:41:36.065Z,659.00
2023-04-20T08:42:36.230Z,660.00
2023-04-20T08:43:36.157Z,663.00
2023-04-20T08:44:36.418Z,664.00
2023-04-20T08:45:36.231Z,682.00
2023-04-20T08:46:36.527Z,713.00
2023-04-20T08:47:36.350Z,739.00
2023-04-20T08:48:36.381Z,770.00
2023-04-20T08:49:36.424Z,790.00
2023-04-20T08:50:36.440Z,837.00
2023-04-20T08:51:36.442Z,882.00
2023-04-20T08:52:36.465Z,907.00
2023-04-20T08:53:36.489Z,928.00
2023-04-20T08:54:37.306Z,965.00
2023-04-20T08:55:36.468Z,1010.00
2023-04-20T08:56:36.482Z,1025.00
2023-04-20T08:57:36.464Z,1049.00
2023-04-20T08:58:36.476Z,1093.00
2023-04-20T08:59:36.477Z,1116.00
2023-04-20T09:00:36.433Z,1118.00
2023-04-20T09:01:36.483Z,1142.00
2023-04-20T09:02:36.572Z,1160.00
2023-04-20T09:03:36.495Z,1183.00
2023-04-20T09:04:36.491Z,1184.00
2023-04-20T09:05:36.483Z,1206.00
2023-04-20T09:06:36.494Z,1208.00
2023-04-20T09:07:36.381Z,1233.00
2023-04-20T09:08:36.392Z,1255.00
2023-04-20T09:09:36.366Z,1309.00
2023-04-20T09:10:36.392Z,1415.00
2023-04-20T09:11:36.372Z,1342.00
2023-04-20T09:12:36.414Z,1486.00
2023-04-20T09:13:36.401Z,1550.00
2023-04-20T09:14:36.448Z,1483.00
2023-04-20T09:15:36.385Z,1478.00
2023-04-20T09:16:36.394Z,1478.00
2023-04-20T09:17:36.402Z,1485.00
2023-04-20T09:18:36.333Z,1303.00
2023-04-20T09:19:36.309Z,1228.00
2023-04-20T09:20:36.308Z,1114.00
2023-04-20T09:21:36.329Z,1098.00
2023-04-20T09:22:36.304Z,1110.00
2023-04-20T09:23:36.275Z,1070.00
2023-04-20T09:24:36.305Z,999.00
2023-04-20T09:25:36.258Z,861.00
2023-04-20T09:26:36.349Z,908.00
2023-04-20T09:27:36.249Z,799.00
2023-04-20T09:28:36.232Z,960.00
2023-04-20T09:29:36.289Z,1013.00
2023-04-20T09:30:36.231Z,997.00
2023-04-20T09:31:36.246Z,770.00
2023-04-20T09:32:36.257Z,656.00
2023-04-20T09:33:36.309Z,641.00
2023-04-20T09:34:36.946Z,635.00
2023-04-20T09:35:36.297Z,633.00
2023-04-20T09:36:36.234Z,632.00
2023-04-20T09:37:36.262Z,634.00
2023-04-20T09:38:36.214Z,620.00
2023-04-20T09:39:36.476Z,607.00
2023-04-20T09:40:36.155Z,593.00
2023-04-20T09:41:36.156Z,578.00
2023-04-20T09:42:36.187Z,554.00
2023-04-20T09:43:36.170Z,540.00
2023-04-20T09:44:36.430Z,524.00
2023-04-20T09:45:36.200Z,510.00
2023-04-20T09:46:36.152Z,497.00
2023-04-20T09:47:36.169Z,502.00
2023-04-20T09:48:36.123Z,528.00
2023-04-20T09:49:36.108Z,504.00
2023-04-20T09:50:48.085Z,505.00
2023-04-20T09:51:37.094Z,484.00
2023-04-20T09:52:36.072Z,464.00
2023-04-20T09:53:36.060Z,443.00
2023-04-20T09:54:36.100Z,434.00
2023-04-20T09:55:36.060Z,400.00
2023-04-20T09:56:36.121Z,433.00
2023-04-20T09:57:36.033Z,473.00
2023-04-20T09:58:36.069Z,517.00
2023-04-20T09:59:36.025Z,522.00
2023-04-20T10:00:36.070Z,529.00
2023-04-20T10:01:36.085Z,547.00
2023-04-20T10:02:36.256Z,556.00
2023-04-20T10:03:36.484Z,561.00
2023-04-20T10:04:36.361Z,525.00
2023-04-20T10:05:36.308Z,542.00
2023-04-20T10:06:36.361Z,573.00
2023-04-20T10:07:36.362Z,617.00
2023-04-20T10:08:36.398Z,623.00
2023-04-20T10:09:36.516Z,630.00
2023-04-20T10:10:36.421Z,643.00
2023-04-20T10:11:49.093Z,656.00
2023-04-20T10:12:37.453Z,657.00
2023-04-20T10:13:36.414Z,662.00
2023-04-20T10:14:36.417Z,681.00
2023-04-20T10:15:36.470Z,747.00
2023-04-20T10:16:36.458Z,868.00
2023-04-20T10:17:36.524Z,963.00
2023-04-20T10:18:36.424Z,1049.00
2023-04-20T10:19:36.525Z,1132.00
2023-04-20T10:20:36.371Z,1160.00
2023-04-20T10:21:36.381Z,1181.00
2023-04-20T10:22:36.461Z,1209.00
2023-04-20T10:23:36.472Z,1294.00
2023-04-20T10:24:36.531Z,1300.00
2023-04-20T10:25:36.623Z,1366.00
2023-04-20T10:26:36.619Z,1388.00
2023-04-20T10:27:36.692Z,1437.00
2023-04-20T10:28:36.717Z,1439.00
2023-04-20T10:29:36.967Z,1443.00
2023-04-20T10:30:36.848Z,1313.00
2023-04-20T10:31:37.038Z,1301.00
2023-04-20T10:32:37.028Z,1367.00
2023-04-20T10:33:36.955Z,1336.00
2023-04-20T10:34:37.472Z,1284.00
2023-04-20T10:35:37.007Z,1290.00
2023-04-20T10:36:37.001Z,1228.00
2023-04-20T10:37:37.022Z,1216.00
2023-04-20T10:38:37.026Z,1233.00
2023-04-20T10:39:37.968Z,1250.00
2023-04-20T10:40:37.974Z,1238.00
2023-04-20T10:41:37.023Z,1230.00
2023-04-20T10:42:37.030Z,1235.00
2023-04-20T10:43:37.014Z,1198.00
2023-04-20T10:44:37.470Z,1180.00
2023-04-20T10:45:37.137Z,1118.00
2023-04-20T10:46:37.125Z,1057.00
2023-04-20T10:47:37.103Z,1053.00
2023-04-20T10:48:37.098Z,1108.00
2023-04-20T10:49:37.106Z,1099.00
2023-04-20T10:50:37.136Z,1119.00
2023-04-20T10:51:37.247Z,1154.00
2023-04-20T10:52:37.250Z,1131.00
2023-04-20T10:53:37.293Z,1192.00
2023-04-20T10:54:37.404Z,1377.00
2023-04-20T10:55:37.489Z,1382.00
2023-04-20T10:56:37.468Z,1386.00
2023-04-20T10:57:37.524Z,1359.00
2023-04-20T10:58:37.570Z,1356.00
2023-04-20T10:59:37.611Z,1345.00
2023-04-20T11:00:37.650Z,1312.00
2023-04-20T11:01:37.706Z,1314.00
2023-04-20T11:02:37.781Z,1339.00
2023-04-20T11:03:37.974Z,1352.00
2023-04-20T11:04:37.896Z,1340.00
2023-04-20T11:05:37.808Z,1363.00
2023-04-20T11:06:37.863Z,1379.00
2023-04-20T11:07:37.892Z,1357.00
2023-04-20T11:08:37.922Z,1350.00
2023-04-20T11:09:37.970Z,1352.00
2023-04-20T11:10:37.987Z,1376.00
2023-04-20T11:11:38.050Z,1349.00
2023-04-20T11:12:38.107Z,1334.00
2023-04-20T11:13:38.072Z,1383.00
2023-04-20T11:14:38.153Z,1394.00
2023-04-20T11:15:38.140Z,1427.00
2023-04-20T11:16:47.820Z,1380.00
2023-04-20T11:17:39.341Z,1382.00
2023-04-20T11:18:38.174Z,1385.00
2023-04-20T11:19:38.177Z,1370.00
2023-04-20T11:20:38.179Z,1320.00
2023-04-20T11:21:38.145Z,1305.00
2023-04-20T11:22:38.250Z,1344.00
2023-04-20T11:23:38.166Z,1343.00
2023-04-20T11:24:38.154Z,1300.00
2023-04-20T11:25:38.112Z,1321.00
2023-04-20T11:26:38.151Z,1332.00
2023-04-20T11:27:38.129Z,1362.00
2023-04-20T11:28:38.209Z,1325.00
2023-04-20T11:29:38.210Z,1325.00
2023-04-20T11:30:38.534Z,1347.00
2023-04-20T11:31:38.379Z,1333.00
2023-04-20T11:32:38.603Z,1296.00
2023-04-20T11:33:38.324Z,1287.00
2023-04-20T11:34:38.493Z,1273.00
2023-04-20T11:35:38.260Z,1282.00
2023-04-20T11:36:38.275Z,1284.00
2023-04-20T11:37:38.257Z,1292.00
2023-04-20T11:38:38.995Z,1305.00
2023-04-20T11:39:38.490Z,1312.00
2023-04-20T11:40:38.250Z,1303.00
2023-04-20T11:41:38.266Z,1304.00
2023-04-20T11:42:38.242Z,1307.00
2023-04-20T11:43:38.250Z,1299.00
2023-04-20T11:44:38.492Z,1295.00
2023-04-20T11:45:38.284Z,1282.00
2023-04-20T11:46:38.278Z,1297.00
2023-04-20T11:47:38.286Z,1275.00
2023-04-20T11:48:38.260Z,1288.00
2023-04-20T11:49:38.495Z,1288.00
2023-04-20T11:50:38.941Z,1280.00
2023-04-20T11:51:38.245Z,1266.00
2023-04-20T11:52:38.274Z,1271.00
2023-04-20T11:53:38.263Z,1272.00
2023-04-20T11:54:38.494Z,1267.00
2023-04-20T11:55:38.301Z,1266.00
2023-04-20T11:56:38.277Z,1265.00
2023-04-20T11:57:38.265Z,1273.00
2023-04-20T11:58:38.297Z,1241.00
2023-04-20T11:59:38.499Z,1264.00
2023-04-20T12:00:38.248Z,1244.00
2023-04-20T12:01:38.291Z,1229.00
2023-04-20T12:02:38.473Z,1213.00
2023-04-20T12:03:38.347Z,1247.00
2023-04-20T12:04:38.471Z,1239.00
2023-04-20T12:05:38.316Z,1229.00
2023-04-20T12:06:38.234Z,1225.00
2023-04-20T12:07:38.257Z,1209.00
2023-04-20T12:08:38.230Z,1194.00
2023-04-20T12:09:38.363Z,1216.00
2023-04-20T12:10:38.259Z,1192.00
2023-04-20T12:11:38.299Z,1197.00
2023-04-20T12:12:38.264Z,1193.00
2023-04-20T12:13:38.233Z,1183.00
2023-04-20T12:14:38.283Z,1178.00
2023-04-20T12:15:38.267Z,1165.00
2023-04-20T12:16:38.214Z,1186.00
2023-04-20T12:17:38.345Z,1165.00
2023-04-20T12:18:38.208Z,1179.00
2023-04-20T12:19:38.230Z,1180.00
2023-04-20T12:20:38.214Z,1153.00
2023-04-20T12:21:38.251Z,1157.00
2023-04-20T12:22:38.230Z,1156.00